Time;durP1;ratioP1;P1;durP2;ratioP2;P2;SDS_P1;SDS_P2;PMS_P1;PMS_P2;Temp;Humidity;BMP_temperature;BMP_pressure;BME280_temperature;BME280_humidity;BME280_pressure;Samples;Min_cycle;Max_cycle;Signal;HPM_P1;HPM_P2
2023/07/23 00:01:39;;;;;;;8.63;4.13;;;;;;;;;;5050659;28;20465;-63
2023/07/23 00:04:05;;;;;;;7.97;4.22;;;;;;;;;;5044933;28;20048;-63
2023/07/23 00:06:33;;;;;;;9.18;4.15;;;;;;;;;;5049865;28;20037;-65
2023/07/23 00:08:58;;;;;;;7.47;3.90;;;;;;;;;;5051756;28;20154;-63
2023/07/23 00:11:23;;;;;;;6.65;3.90;;;;;;;;;;5034760;28;20554;-64
2023/07/23 00:13:49;;;;;;;7.90;4.53;;;;;;;;;;5050080;28;20044;-63
2023/07/23 00:16:14;;;;;;;6.55;4.15;;;;;;;;;;5034915;28;20036;-64
2023/07/23 00:18:40;;;;;;;6.72;4.10;;;;;;;;;;5053294;28;20047;-63
2023/07/23 00:21:05;;;;;;;8.98;4.10;;;;;;;;;;5035270;28;20025;-63
2023/07/23 00:23:31;;;;;;;6.72;4.18;;;;;;;;;;5037442;28;20159;-65
2023/07/23 00:25:56;;;;;;;7.68;4.20;;;;;;;;;;5053567;28;20063;-63
2023/07/23 00:28:22;;;;;;;8.73;4.20;;;;;;;;;;5044970;28;20117;-62
2023/07/23 00:30:47;;;;;;;7.88;4.03;;;;;;;;;;5050086;28;20385;-63
2023/07/23 00:33:13;;;;;;;8.50;4.30;;;;;;;;;;5037926;28;20037;-64
2023/07/23 00:35:38;;;;;;;7.38;4.60;;;;;;;;;;5038845;28;20044;-63
2023/07/23 00:38:03;;;;;;;7.03;4.38;;;;;;;;;;5038820;28;20065;-63
2023/07/23 00:40:29;;;;;;;7.32;4.38;;;;;;;;;;5053008;28;20032;-62
2023/07/23 00:42:54;;;;;;;10.07;4.60;;;;;;;;;;5041086;28;20144;-63
2023/07/23 00:45:20;;;;;;;8.18;4.25;;;;;;;;;;5061698;28;20463;-63
2023/07/23 00:47:45;;;;;;;11.20;4.70;;;;;;;;;;5035284;28;20033;-63
2023/07/23 00:50:12;;;;;;;8.23;4.60;;;;;;;;;;5051824;28;20129;-63
2023/07/23 00:52:41;;;;;;;14.00;4.85;;;;;;;;;;5053500;28;20039;-63
2023/07/23 00:55:07;;;;;;;8.52;4.68;;;;;;;;;;5034285;28;20512;-63
2023/07/23 00:57:32;;;;;;;9.10;4.63;;;;;;;;;;5047770;28;20371;-64
2023/07/23 00:59:58;;;;;;;8.23;4.88;;;;;;;;;;5035291;28;20489;-63
2023/07/23 01:02:26;;;;;;;7.97;4.82;;;;;;;;;;5044290;28;20397;-62
2023/07/23 01:04:52;;;;;;;9.13;4.78;;;;;;;;;;5038386;28;20386;-63
2023/07/23 01:07:18;;;;;;;11.77;4.63;;;;;;;;;;5047395;28;20040;-62
2023/07/23 01:09:47;;;;;;;7.63;4.47;;;;;;;;;;5039957;28;20116;-63
2023/07/23 01:12:14;;;;;;;7.57;4.47;;;;;;;;;;5046009;28;20115;-62
2023/07/23 01:14:40;;;;;;;8.55;4.40;;;;;;;;;;5056338;28;20036;-63
2023/07/23 01:17:07;;;;;;;7.72;4.43;;;;;;;;;;5043789;28;20026;-62
2023/07/23 01:19:32;;;;;;;7.07;4.18;;;;;;;;;;5036224;28;20047;-62
2023/07/23 01:22:00;;;;;;;7.55;4.38;;;;;;;;;;5045142;28;20030;-62
2023/07/23 01:24:25;;;;;;;7.10;4.25;;;;;;;;;;5033632;28;20033;-62
2023/07/23 01:26:51;;;;;;;7.75;4.22;;;;;;;;;;5045540;28;20043;-63
2023/07/23 01:29:16;;;;;;;9.60;4.10;;;;;;;;;;5040016;28;20160;-63
2023/07/23 01:31:41;;;;;;;7.13;4.10;;;;;;;;;;5044432;28;20406;-63
2023/07/23 01:34:07;;;;;;;8.60;4.20;;;;;;;;;;5035008;28;20057;-62
2023/07/23 01:36:33;;;;;;;8.82;4.60;;;;;;;;;;5033173;28;20034;-62
2023/07/23 01:38:58;;;;;;;7.75;4.07;;;;;;;;;;5044906;28;20033;-62
2023/07/23 01:41:25;;;;;;;8.00;4.30;;;;;;;;;;5053354;28;20041;-62
2023/07/23 01:43:50;;;;;;;8.77;4.20;;;;;;;;;;5060400;28;20083;-62
2023/07/23 01:46:16;;;;;;;11.02;4.20;;;;;;;;;;5038240;28;20065;-62
2023/07/23 01:48:41;;;;;;;6.90;4.00;;;;;;;;;;5044491;28;20154;-62
2023/07/23 01:51:08;;;;;;;7.72;4.20;;;;;;;;;;5043763;28;20439;-61
2023/07/23 01:53:34;;;;;;;8.35;4.43;;;;;;;;;;5045781;28;20053;-61
2023/07/23 01:55:59;;;;;;;8.73;4.20;;;;;;;;;;5039186;28;20032;-61
2023/07/23 01:58:25;;;;;;;7.80;4.50;;;;;;;;;;5052347;28;20033;-63
2023/07/23 02:00:56;;;;;;;7.25;4.10;;;;;;;;;;5050571;28;20037;-61
2023/07/23 02:03:22;;;;;;;6.93;4.10;;;;;;;;;;5053524;28;20029;-62
2023/07/23 02:06:01;;;;;;;8.57;4.38;;;;;;;;;;5043015;28;20060;-63
2023/07/23 02:08:27;;;;;;;6.55;3.90;;;;;;;;;;5044138;28;20367;-63
2023/07/23 02:11:18;;;;;;;7.50;4.10;;;;;;;;;;5047108;28;20107;-64
2023/07/23 02:13:44;;;;;;;7.65;3.78;;;;;;;;;;5045897;28;20037;-62
2023/07/23 02:16:20;;;;;;;7.15;4.40;;;;;;;;;;5033283;28;20373;-62
2023/07/23 02:18:45;;;;;;;9.05;4.32;;;;;;;;;;5032294;28;20087;-62
2023/07/23 02:21:11;;;;;;;7.32;4.40;;;;;;;;;;5032967;28;20428;-62
2023/07/23 02:23:36;;;;;;;11.25;4.53;;;;;;;;;;5033872;28;20366;-62
2023/07/23 02:26:02;;;;;;;8.35;4.07;;;;;;;;;;5054860;28;20119;-62
2023/07/23 02:28:27;;;;;;;6.63;4.18;;;;;;;;;;5054810;28;20064;-61
2023/07/23 02:30:59;;;;;;;6.93;4.10;;;;;;;;;;5031084;28;20033;-62
2023/07/23 02:33:25;;;;;;;8.98;4.50;;;;;;;;;;5031844;28;20048;-62
2023/07/23 02:35:51;;;;;;;12.32;4.13;;;;;;;;;;5045738;28;20033;-62
2023/07/23 02:38:19;;;;;;;7.88;4.55;;;;;;;;;;5051328;28;20135;-63
2023/07/23 02:40:44;;;;;;;10.63;4.50;;;;;;;;;;5049264;28;20131;-62
2023/07/23 02:43:12;;;;;;;10.02;4.28;;;;;;;;;;5052079;28;20060;-63
2023/07/23 02:45:38;;;;;;;6.22;4.13;;;;;;;;;;5048930;28;20041;-61
2023/07/23 02:48:04;;;;;;;8.20;4.43;;;;;;;;;;5032337;28;20021;-61
2023/07/23 02:50:29;;;;;;;7.90;4.35;;;;;;;;;;5031608;28;20059;-62
2023/07/23 02:52:54;;;;;;;7.53;4.15;;;;;;;;;;5043178;28;20491;-63
2023/07/23 02:55:22;;;;;;;7.47;4.13;;;;;;;;;;5051415;28;20086;-62
2023/07/23 02:57:49;;;;;;;10.52;4.40;;;;;;;;;;5038233;28;20364;-62
2023/07/23 03:00:15;;;;;;;7.40;4.50;;;;;;;;;;5031024;28;20112;-61
2023/07/23 03:02:40;;;;;;;8.00;4.40;;;;;;;;;;5038310;28;20442;-63
2023/07/23 03:05:06;;;;;;;8.23;4.53;;;;;;;;;;5051443;28;20025;-61
2023/07/23 03:07:32;;;;;;;8.52;4.35;;;;;;;;;;5035739;28;20106;-61
2023/07/23 03:09:58;;;;;;;7.72;4.60;;;;;;;;;;5039446;28;20474;-62
2023/07/23 03:12:23;;;;;;;7.38;4.45;;;;;;;;;;5033891;28;20041;-62
2023/07/23 03:14:49;;;;;;;8.55;4.55;;;;;;;;;;5031082;28;20029;-64
2023/07/23 03:17:14;;;;;;;7.82;4.50;;;;;;;;;;5046168;28;20045;-61
2023/07/23 03:19:40;;;;;;;7.28;4.40;;;;;;;;;;5048135;28;20093;-64
2023/07/23 03:22:05;;;;;;;7.03;4.55;;;;;;;;;;5047576;28;20415;-63
2023/07/23 03:24:30;;;;;;;7.47;4.40;;;;;;;;;;5048030;28;20039;-62
2023/07/23 03:26:56;;;;;;;8.18;4.55;;;;;;;;;;5042550;28;20392;-62
2023/07/23 03:29:21;;;;;;;8.15;4.68;;;;;;;;;;5045375;28;20029;-62
2023/07/23 03:31:47;;;;;;;6.97;4.43;;;;;;;;;;5050880;28;20116;-62
2023/07/23 03:34:12;;;;;;;8.65;4.80;;;;;;;;;;5054428;28;20477;-62
2023/07/23 03:36:37;;;;;;;7.82;4.82;;;;;;;;;;5043654;28;20068;-61
2023/07/23 03:39:03;;;;;;;7.22;4.53;;;;;;;;;;5030914;28;20052;-62
2023/07/23 03:41:28;;;;;;;7.43;4.45;;;;;;;;;;5037913;28;20032;-63
2023/07/23 03:43:53;;;;;;;7.82;4.97;;;;;;;;;;5046618;28;20053;-62
2023/07/23 03:46:19;;;;;;;7.43;4.45;;;;;;;;;;5047432;28;20057;-62
2023/07/23 03:48:47;;;;;;;7.78;4.25;;;;;;;;;;5031787;28;20119;-63
2023/07/23 03:51:14;;;;;;;7.43;4.43;;;;;;;;;;5044349;28;20039;-62
2023/07/23 03:53:40;;;;;;;10.52;4.38;;;;;;;;;;5032853;28;20065;-62
2023/07/23 03:56:05;;;;;;;7.78;4.60;;;;;;;;;;5033768;28;20134;-62
2023/07/23 03:58:31;;;;;;;9.70;4.57;;;;;;;;;;5047622;28;20036;-62
2023/07/23 04:00:56;;;;;;;6.53;4.32;;;;;;;;;;5049373;28;20037;-62
2023/07/23 04:03:21;;;;;;;7.80;4.47;;;;;;;;;;5044854;28;20091;-63
2023/07/23 04:05:47;;;;;;;10.05;4.30;;;;;;;;;;5030989;28;20030;-63
2023/07/23 04:08:12;;;;;;;7.13;4.78;;;;;;;;;;5030183;28;20512;-62
2023/07/23 04:10:37;;;;;;;10.15;4.65;;;;;;;;;;5031537;28;20037;-62
2023/07/23 04:13:03;;;;;;;6.18;4.13;;;;;;;;;;5033449;28;20113;-62
2023/07/23 04:15:30;;;;;;;8.82;4.13;;;;;;;;;;5047791;28;20030;-62
2023/07/23 04:17:56;;;;;;;6.10;4.20;;;;;;;;;;5034163;28;20057;-63
2023/07/23 04:20:21;;;;;;;9.65;4.55;;;;;;;;;;5044871;28;20501;-61
2023/07/23 04:22:47;;;;;;;9.50;4.28;;;;;;;;;;5032223;28;20039;-64
2023/07/23 04:25:12;;;;;;;6.05;4.00;;;;;;;;;;5044007;28;20992;-64
2023/07/23 04:27:37;;;;;;;7.65;4.07;;;;;;;;;;5030789;28;20038;-63
2023/07/23 04:30:03;;;;;;;6.75;4.35;;;;;;;;;;5044528;28;20033;-63
2023/07/23 04:32:30;;;;;;;7.38;4.30;;;;;;;;;;5046077;28;20470;-63
2023/07/23 04:34:56;;;;;;;8.50;4.28;;;;;;;;;;5030934;28;20094;-63
2023/07/23 04:37:21;;;;;;;6.25;4.13;;;;;;;;;;5033573;28;20033;-61
2023/07/23 04:39:47;;;;;;;7.57;3.72;;;;;;;;;;5046274;28;20033;-64
2023/07/23 04:42:12;;;;;;;9.32;4.25;;;;;;;;;;5045197;28;20056;-62
2023/07/23 04:44:37;;;;;;;7.38;4.20;;;;;;;;;;5035796;28;20134;-63
2023/07/23 04:47:03;;;;;;;7.20;3.97;;;;;;;;;;5048278;28;20116;-64
2023/07/23 04:49:28;;;;;;;6.90;3.75;;;;;;;;;;5041865;28;20037;-62
2023/07/23 04:51:54;;;;;;;7.05;3.75;;;;;;;;;;5050521;28;20500;-64
2023/07/23 04:54:19;;;;;;;6.03;4.07;;;;;;;;;;5040081;28;20033;-62
2023/07/23 04:56:45;;;;;;;6.38;3.88;;;;;;;;;;5055191;28;20029;-62
2023/07/23 04:59:10;;;;;;;5.10;3.58;;;;;;;;;;5058015;28;20041;-62
2023/07/23 05:01:36;;;;;;;8.63;4.15;;;;;;;;;;5054857;28;20516;-61
2023/07/23 05:04:03;;;;;;;10.90;4.10;;;;;;;;;;5053804;28;20462;-62
2023/07/23 05:06:28;;;;;;;6.13;3.90;;;;;;;;;;5053213;28;20040;-62
2023/07/23 05:08:54;;;;;;;5.88;3.85;;;;;;;;;;5053598;28;20029;-62
2023/07/23 05:11:19;;;;;;;8.48;4.03;;;;;;;;;;5054402;28;20055;-62
2023/07/23 05:13:44;;;;;;;5.97;3.63;;;;;;;;;;5053386;28;20033;-62
2023/07/23 05:16:10;;;;;;;6.07;3.90;;;;;;;;;;5039468;28;20613;-62
2023/07/23 05:18:35;;;;;;;7.28;4.10;;;;;;;;;;5049844;28;20108;-62
2023/07/23 05:21:03;;;;;;;10.02;3.75;;;;;;;;;;5033500;28;20026;-62
2023/07/23 05:23:28;;;;;;;5.40;3.20;;;;;;;;;;5034055;28;20525;-61
2023/07/23 05:25:56;;;;;;;6.72;3.60;;;;;;;;;;5033478;28;20116;-62
2023/07/23 05:28:21;;;;;;;7.15;3.78;;;;;;;;;;5034269;28;20038;-61
2023/07/23 05:30:46;;;;;;;7.57;3.55;;;;;;;;;;5034184;28;20021;-63
2023/07/23 05:33:12;;;;;;;6.05;3.42;;;;;;;;;;5053204;28;20598;-61
2023/07/23 05:35:38;;;;;;;6.22;3.38;;;;;;;;;;5052577;28;20120;-61
2023/07/23 05:38:03;;;;;;;6.70;3.45;;;;;;;;;;5053235;28;20039;-61
2023/07/23 05:40:30;;;;;;;6.95;3.40;;;;;;;;;;5053685;28;20033;-61
2023/07/23 05:42:55;;;;;;;5.65;3.35;;;;;;;;;;5052960;28;20052;-62
2023/07/23 05:45:21;;;;;;;8.00;3.22;;;;;;;;;;5053836;28;20048;-61
2023/07/23 05:47:47;;;;;;;6.32;3.28;;;;;;;;;;5052660;28;20031;-60
2023/07/23 05:50:15;;;;;;;6.65;3.40;;;;;;;;;;5052991;28;20118;-61
2023/07/23 05:52:40;;;;;;;5.82;3.40;;;;;;;;;;5052815;28;20024;-61
2023/07/23 05:55:06;;;;;;;4.35;3.08;;;;;;;;;;5052964;28;20032;-62
2023/07/23 05:57:31;;;;;;;6.70;3.17;;;;;;;;;;5053558;28;20033;-62
2023/07/23 05:59:57;;;;;;;6.10;3.08;;;;;;;;;;5051496;28;20029;-62
2023/07/23 06:02:22;;;;;;;5.65;3.13;;;;;;;;;;5052318;28;20064;-63
2023/07/23 06:04:48;;;;;;;6.10;3.45;;;;;;;;;;5052975;28;20025;-62
2023/07/23 06:07:13;;;;;;;4.40;2.63;;;;;;;;;;5052395;28;20466;-61
2023/07/23 06:09:41;;;;;;;4.63;2.60;;;;;;;;;;5065854;28;20035;-63
2023/07/23 06:12:07;;;;;;;9.13;2.83;;;;;;;;;;5072026;28;20024;-62
2023/07/23 06:14:32;;;;;;;6.85;2.70;;;;;;;;;;5073358;28;20039;-61
2023/07/23 06:16:57;;;;;;;6.65;3.00;;;;;;;;;;5071423;28;20028;-61
2023/07/23 06:19:23;;;;;;;6.60;2.97;;;;;;;;;;5071982;28;20536;-61
2023/07/23 06:21:48;;;;;;;7.38;2.75;;;;;;;;;;5073201;28;20032;-62
2023/07/23 06:24:13;;;;;;;7.45;2.70;;;;;;;;;;5049807;28;20029;-61
2023/07/23 06:26:39;;;;;;;4.03;2.47;;;;;;;;;;5053183;28;20037;-61
2023/07/23 06:29:05;;;;;;;3.92;2.50;;;;;;;;;;5051007;28;20063;-61
2023/07/23 06:31:30;;;;;;;9.63;2.90;;;;;;;;;;5052898;28;20477;-61
2023/07/23 06:33:57;;;;;;;4.68;2.60;;;;;;;;;;5046877;28;20033;-67
2023/07/23 06:36:25;;;;;;;4.75;2.50;;;;;;;;;;5053105;28;20040;-62
2023/07/23 06:38:50;;;;;;;6.57;2.38;;;;;;;;;;5052872;28;20115;-61
2023/07/23 06:41:16;;;;;;;4.50;2.63;;;;;;;;;;5051212;28;20437;-62
2023/07/23 06:43:41;;;;;;;8.23;2.50;;;;;;;;;;5054961;28;20052;-62
2023/07/23 06:46:06;;;;;;;3.08;1.88;;;;;;;;;;5047858;28;20040;-62
2023/07/23 06:48:32;;;;;;;8.98;2.78;;;;;;;;;;5032369;28;20370;-61
2023/07/23 06:50:57;;;;;;;5.63;2.80;;;;;;;;;;5031827;28;20477;-64
2023/07/23 06:53:23;;;;;;;5.35;2.45;;;;;;;;;;5040760;28;20116;-61
2023/07/23 06:56:04;;;;;;;5.55;2.63;;;;;;;;;;5052586;28;20428;-66
2023/07/23 06:58:30;;;;;;;2.78;1.90;;;;;;;;;;5050096;28;20029;-62
2023/07/23 07:00:57;;;;;;;6.25;2.40;;;;;;;;;;5051627;28;20036;-68
2023/07/23 07:03:23;;;;;;;4.13;2.28;;;;;;;;;;5051999;28;20033;-62
2023/07/23 07:05:48;;;;;;;5.32;2.67;;;;;;;;;;5052440;28;20036;-61
2023/07/23 07:08:13;;;;;;;3.80;2.35;;;;;;;;;;5051481;28;20111;-62
2023/07/23 07:10:39;;;;;;;5.63;2.30;;;;;;;;;;5044937;28;20489;-62
2023/07/23 07:13:04;;;;;;;3.75;2.50;;;;;;;;;;5044516;28;20039;-62
2023/07/23 07:15:30;;;;;;;6.38;2.50;;;;;;;;;;5048543;28;20025;-61
2023/07/23 07:17:55;;;;;;;6.07;2.95;;;;;;;;;;5049821;28;20025;-67
2023/07/23 07:20:20;;;;;;;3.83;2.20;;;;;;;;;;5051068;28;20110;-61
2023/07/23 07:22:46;;;;;;;4.22;2.15;;;;;;;;;;5051242;28;20033;-61
2023/07/23 07:25:12;;;;;;;4.00;2.40;;;;;;;;;;5031307;28;20453;-62
2023/07/23 07:27:37;;;;;;;4.03;1.88;;;;;;;;;;5039106;28;20031;-61
2023/07/23 07:30:03;;;;;;;5.72;2.65;;;;;;;;;;5045621;28;20064;-62
2023/07/23 07:32:29;;;;;;;4.18;2.28;;;;;;;;;;5055827;28;20115;-61
2023/07/23 07:34:54;;;;;;;7.72;2.80;;;;;;;;;;5046455;28;20035;-61
2023/07/23 07:37:19;;;;;;;3.95;2.40;;;;;;;;;;5050161;28;20361;-61
2023/07/23 07:39:45;;;;;;;5.45;2.88;;;;;;;;;;5046182;28;20488;-62
2023/07/23 07:42:10;;;;;;;3.47;2.35;;;;;;;;;;5037190;28;20072;-62
2023/07/23 07:44:35;;;;;;;6.82;2.80;;;;;;;;;;5043115;28;20057;-62
2023/07/23 07:47:01;;;;;;;4.60;2.60;;;;;;;;;;5039308;28;20075;-63
2023/07/23 07:49:26;;;;;;;3.47;2.08;;;;;;;;;;5043214;28;20040;-62
2023/07/23 07:51:52;;;;;;;7.38;3.03;;;;;;;;;;5031799;28;20386;-62
2023/07/23 07:54:17;;;;;;;4.97;2.80;;;;;;;;;;5032082;28;20033;-62
2023/07/23 07:56:43;;;;;;;4.50;2.95;;;;;;;;;;5033438;28;20064;-61
2023/07/23 07:59:10;;;;;;;4.18;2.67;;;;;;;;;;5038992;28;20098;-62
2023/07/23 08:01:36;;;;;;;4.55;2.90;;;;;;;;;;5039112;28;20041;-61
2023/07/23 08:04:02;;;;;;;5.88;3.30;;;;;;;;;;5048053;28;20032;-66
2023/07/23 08:06:28;;;;;;;6.40;2.70;;;;;;;;;;5046327;28;20033;-61
2023/07/23 08:08:57;;;;;;;5.60;2.60;;;;;;;;;;5050394;28;20037;-61
2023/07/23 08:11:25;;;;;;;6.93;2.95;;;;;;;;;;5054144;28;20044;-61
2023/07/23 08:13:50;;;;;;;7.63;2.47;;;;;;;;;;5049377;28;20111;-62
2023/07/23 08:16:17;;;;;;;4.85;2.92;;;;;;;;;;5049311;28;20098;-63
2023/07/23 08:18:44;;;;;;;4.43;2.72;;;;;;;;;;5035095;28;20044;-62
2023/07/23 08:21:10;;;;;;;4.30;2.53;;;;;;;;;;5050520;28;20363;-63
2023/07/23 08:23:36;;;;;;;8.35;2.72;;;;;;;;;;5051345;28;20037;-63
2023/07/23 08:26:04;;;;;;;6.68;2.95;;;;;;;;;;5050473;28;20029;-64
2023/07/23 08:28:34;;;;;;;4.15;2.28;;;;;;;;;;5051466;28;20078;-62
2023/07/23 08:31:00;;;;;;;9.10;2.78;;;;;;;;;;5036479;28;20117;-65
2023/07/23 08:33:28;;;;;;;5.07;2.40;;;;;;;;;;5034700;28;20183;-63
2023/07/23 08:35:57;;;;;;;4.00;2.70;;;;;;;;;;5035158;28;20117;-63
2023/07/23 08:38:24;;;;;;;7.03;3.17;;;;;;;;;;5034372;28;20128;-63
2023/07/23 08:40:57;;;;;;;4.43;3.00;;;;;;;;;;5047297;28;20036;-61
2023/07/23 08:44:00;;;;;;;6.63;2.60;;;;;;;;;;5051015;28;20086;-62
2023/07/23 08:46:27;;;;;;;4.65;2.80;;;;;;;;;;5053253;28;20037;-63
2023/07/23 08:48:56;;;;;;;6.63;3.03;;;;;;;;;;5051598;28;20033;-64
2023/07/23 08:51:48;;;;;;;5.80;2.70;;;;;;;;;;5053821;28;20037;-63
2023/07/23 08:54:15;;;;;;;5.57;2.90;;;;;;;;;;5052888;28;20059;-63
2023/07/23 08:56:42;;;;;;;5.43;3.10;;;;;;;;;;5053594;28;20032;-63
2023/07/23 08:59:08;;;;;;;5.80;3.13;;;;;;;;;;5054061;28;20485;-63
2023/07/23 09:01:35;;;;;;;6.32;3.08;;;;;;;;;;5052803;28;20112;-63
2023/07/23 09:04:02;;;;;;;6.93;3.05;;;;;;;;;;5054185;28;20037;-64
2023/07/23 09:06:31;;;;;;;7.07;3.33;;;;;;;;;;5054026;28;20090;-63
2023/07/23 09:09:01;;;;;;;4.68;2.55;;;;;;;;;;5054538;28;20033;-63
2023/07/23 09:11:30;;;;;;;6.28;3.03;;;;;;;;;;5053695;28;20036;-63
2023/07/23 09:14:08;;;;;;;4.93;3.50;;;;;;;;;;5050258;28;20079;-63
2023/07/23 09:16:39;;;;;;;6.97;3.42;;;;;;;;;;5054855;28;20041;-63
2023/07/23 09:19:05;;;;;;;6.32;3.60;;;;;;;;;;5053933;28;20112;-65
2023/07/23 09:21:31;;;;;;;7.60;3.97;;;;;;;;;;5054239;28;20078;-63
2023/07/23 09:24:02;;;;;;;7.05;3.83;;;;;;;;;;5054327;28;20029;-62
2023/07/23 09:26:28;;;;;;;6.72;3.33;;;;;;;;;;5053647;28;20492;-63
2023/07/23 09:28:57;;;;;;;7.40;4.05;;;;;;;;;;5050987;28;20029;-65
2023/07/23 09:31:26;;;;;;;8.63;4.28;;;;;;;;;;5053132;28;20075;-66
2023/07/23 09:33:57;;;;;;;7.80;3.83;;;;;;;;;;5054151;28;20128;-66
2023/07/23 09:36:23;;;;;;;8.20;4.13;;;;;;;;;;5053127;28;20064;-66
2023/07/23 09:38:57;;;;;;;7.35;4.25;;;;;;;;;;5053600;28;20541;-65
2023/07/23 09:41:28;;;;;;;7.97;4.13;;;;;;;;;;5052710;28;20654;-66
2023/07/23 09:43:53;;;;;;;7.78;4.22;;;;;;;;;;5052247;28;20060;-66
2023/07/23 09:46:19;;;;;;;7.10;3.70;;;;;;;;;;5055349;28;20029;-66
2023/07/23 09:48:45;;;;;;;8.50;4.65;;;;;;;;;;5054116;28;20465;-64
2023/07/23 09:51:12;;;;;;;8.63;4.50;;;;;;;;;;5052776;28;20032;-67
2023/07/23 09:53:45;;;;;;;8.02;4.72;;;;;;;;;;5053790;28;20048;-66
2023/07/23 09:56:13;;;;;;;7.32;4.57;;;;;;;;;;5052807;28;20033;-67
2023/07/23 09:58:39;;;;;;;10.23;4.97;;;;;;;;;;5048011;28;20045;-65
2023/07/23 10:01:05;;;;;;;8.95;4.78;;;;;;;;;;5053105;28;20064;-68
2023/07/23 10:03:32;;;;;;;9.45;4.75;;;;;;;;;;5053080;28;20040;-65
2023/07/23 10:05:58;;;;;;;9.30;5.05;;;;;;;;;;5053590;28;20035;-65
2023/07/23 10:08:26;;;;;;;10.43;5.22;;;;;;;;;;5052434;28;20044;-66
2023/07/23 10:10:52;;;;;;;9.77;4.85;;;;;;;;;;5052417;28;20040;-66
2023/07/23 10:13:17;;;;;;;9.50;5.10;;;;;;;;;;5048718;28;20037;-66
2023/07/23 10:15:44;;;;;;;8.35;5.10;;;;;;;;;;5053226;28;20107;-67
2023/07/23 10:18:11;;;;;;;9.63;5.07;;;;;;;;;;5051287;28;20043;-67
2023/07/23 10:20:37;;;;;;;7.75;5.30;;;;;;;;;;5053134;28;20389;-66
2023/07/23 10:23:08;;;;;;;9.48;5.40;;;;;;;;;;5052917;28;20041;-66
2023/07/23 10:25:35;;;;;;;9.13;5.40;;;;;;;;;;5048139;28;20500;-66
2023/07/23 10:28:03;;;;;;;6.40;4.25;;;;;;;;;;5041872;28;20036;-65
2023/07/23 10:30:30;;;;;;;8.70;5.38;;;;;;;;;;5052048;28;20029;-65
2023/07/23 10:33:10;;;;;;;9.32;5.55;;;;;;;;;;5039555;28;20424;-65
2023/07/23 10:35:59;;;;;;;7.55;4.30;;;;;;;;;;5032826;28;20049;-66
2023/07/23 10:38:34;;;;;;;8.75;4.65;;;;;;;;;;5039406;28;20044;-66
2023/07/23 10:41:01;;;;;;;8.15;4.75;;;;;;;;;;5052990;28;20036;-65
2023/07/23 10:43:48;;;;;;;8.88;5.30;;;;;;;;;;5051917;28;20159;-66
2023/07/23 10:46:18;;;;;;;8.75;5.20;;;;;;;;;;5032021;28;20029;-66
2023/07/23 10:48:50;;;;;;;6.88;4.68;;;;;;;;;;5032714;28;20037;-65
2023/07/23 10:51:21;;;;;;;7.63;4.50;;;;;;;;;;5031896;28;20511;-66
2023/07/23 10:54:02;;;;;;;7.57;4.97;;;;;;;;;;5031724;28;20034;-65
2023/07/23 10:56:41;;;;;;;7.53;4.70;;;;;;;;;;5047009;28;20033;-66
2023/07/23 10:59:10;;;;;;;9.38;5.20;;;;;;;;;;5052502;28;20041;-65
2023/07/23 11:01:39;;;;;;;9.30;5.60;;;;;;;;;;5052389;28;20043;-66
2023/07/23 11:04:17;;;;;;;8.55;5.28;;;;;;;;;;5051964;28;20497;-66
2023/07/23 11:06:57;;;;;;;7.72;5.07;;;;;;;;;;5032921;28;20030;-66
2023/07/23 11:09:30;;;;;;;8.57;5.15;;;;;;;;;;5031590;28;20099;-66
2023/07/23 11:11:56;;;;;;;8.80;5.60;;;;;;;;;;5032333;28;20033;-66
2023/07/23 11:14:22;;;;;;;9.30;5.85;;;;;;;;;;5030999;28;20033;-66
2023/07/23 11:16:50;;;;;;;7.05;4.32;;;;;;;;;;5034794;28;20033;-66
2023/07/23 11:19:18;;;;;;;7.80;5.50;;;;;;;;;;5051072;28;20531;-66
2023/07/23 11:21:56;;;;;;;9.02;5.70;;;;;;;;;;5052137;28;20029;-66
2023/07/23 11:24:22;;;;;;;7.93;4.78;;;;;;;;;;5048907;28;20048;-66
2023/07/23 11:26:48;;;;;;;10.55;5.35;;;;;;;;;;5050003;28;20044;-66
2023/07/23 11:29:14;;;;;;;8.50;5.30;;;;;;;;;;5051332;28;20432;-67
2023/07/23 11:31:40;;;;;;;7.47;5.03;;;;;;;;;;5052196;28;20029;-65
2023/07/23 11:34:06;;;;;;;11.52;6.20;;;;;;;;;;5053567;28;20431;-66
2023/07/23 11:36:33;;;;;;;8.07;5.30;;;;;;;;;;5053414;28;20040;-66
2023/07/23 11:38:59;;;;;;;8.43;4.75;;;;;;;;;;5051966;28;20424;-66
2023/07/23 11:41:30;;;;;;;8.32;4.60;;;;;;;;;;5047376;28;20061;-66
2023/07/23 11:43:57;;;;;;;9.40;5.20;;;;;;;;;;5051214;28;20148;-66
2023/07/23 11:46:22;;;;;;;8.25;5.10;;;;;;;;;;5051061;28;20082;-67
2023/07/23 11:48:51;;;;;;;9.55;5.40;;;;;;;;;;5051993;28;20025;-66
2023/07/23 11:51:17;;;;;;;7.85;5.10;;;;;;;;;;5050842;28;20029;-66
2023/07/23 11:53:42;;;;;;;10.07;5.05;;;;;;;;;;5050241;28;20040;-66
2023/07/23 11:56:14;;;;;;;6.80;4.20;;;;;;;;;;5050952;28;20037;-66
2023/07/23 11:58:40;;;;;;;8.20;4.50;;;;;;;;;;5047634;28;20060;-65
2023/07/23 12:01:07;;;;;;;8.43;5.28;;;;;;;;;;5051579;28;20535;-66
2023/07/23 12:03:38;;;;;;;10.00;4.72;;;;;;;;;;5049445;28;20633;-65
2023/07/23 12:06:04;;;;;;;7.60;4.25;;;;;;;;;;5055137;28;20034;-66
2023/07/23 12:08:30;;;;;;;7.40;4.80;;;;;;;;;;5054419;28;20028;-66
2023/07/23 12:10:55;;;;;;;9.63;5.43;;;;;;;;;;5054451;28;20031;-66
2023/07/23 12:13:24;;;;;;;8.15;3.90;;;;;;;;;;5054625;28;20108;-67
2023/07/23 12:15:50;;;;;;;7.55;4.10;;;;;;;;;;5055671;28;20112;-65
2023/07/23 12:18:15;;;;;;;7.00;4.30;;;;;;;;;;5054968;28;20059;-67
2023/07/23 12:20:41;;;;;;;8.48;4.43;;;;;;;;;;5055035;28;20033;-66
2023/07/23 12:23:06;;;;;;;7.20;4.30;;;;;;;;;;5054986;28;20033;-66
2023/07/23 12:25:32;;;;;;;7.97;4.20;;;;;;;;;;5051223;28;20025;-66
2023/07/23 12:27:57;;;;;;;8.52;4.72;;;;;;;;;;5055481;28;20028;-66
2023/07/23 12:30:22;;;;;;;6.40;4.30;;;;;;;;;;5054060;28;20029;-66
2023/07/23 12:32:48;;;;;;;8.77;4.60;;;;;;;;;;5055177;28;20061;-66
2023/07/23 12:35:14;;;;;;;7.88;4.40;;;;;;;;;;5054827;28;20037;-66
2023/07/23 12:37:39;;;;;;;8.57;4.80;;;;;;;;;;5054750;28;20025;-66
2023/07/23 12:40:08;;;;;;;7.70;4.13;;;;;;;;;;5052820;28;20032;-66
2023/07/23 12:42:33;;;;;;;7.40;4.13;;;;;;;;;;5051882;28;20872;-67
2023/07/23 12:45:00;;;;;;;7.53;4.20;;;;;;;;;;5055079;28;20052;-67
2023/07/23 12:47:29;;;;;;;8.23;4.10;;;;;;;;;;5054472;28;20163;-66
2023/07/23 12:49:58;;;;;;;8.10;4.13;;;;;;;;;;5054956;28;20033;-66
2023/07/23 12:52:23;;;;;;;8.05;4.10;;;;;;;;;;5053970;28;20121;-66
2023/07/23 12:54:49;;;;;;;8.10;4.35;;;;;;;;;;5054776;28;20410;-65
2023/07/23 12:57:16;;;;;;;7.65;4.70;;;;;;;;;;5052667;28;20044;-65
2023/07/23 12:59:43;;;;;;;10.95;4.53;;;;;;;;;;5052463;28;20043;-66
2023/07/23 13:02:08;;;;;;;8.85;4.60;;;;;;;;;;5054907;28;20096;-66
2023/07/23 13:04:34;;;;;;;6.95;4.35;;;;;;;;;;5053441;28;20072;-66
2023/07/23 13:06:59;;;;;;;7.60;4.72;;;;;;;;;;5054768;28;20033;-66
2023/07/23 13:09:25;;;;;;;10.25;4.97;;;;;;;;;;5052595;28;20025;-66
2023/07/23 13:11:50;;;;;;;8.60;4.60;;;;;;;;;;5053389;28;20458;-65
2023/07/23 13:14:16;;;;;;;7.75;4.43;;;;;;;;;;5053957;28;20078;-65
2023/07/23 13:16:41;;;;;;;6.38;4.72;;;;;;;;;;5052816;28;20033;-65
2023/07/23 13:19:07;;;;;;;7.82;4.63;;;;;;;;;;5054062;28;20029;-65
2023/07/23 13:21:32;;;;;;;7.80;4.43;;;;;;;;;;5053568;28;20461;-65
2023/07/23 13:23:57;;;;;;;8.15;4.78;;;;;;;;;;5054236;28;20609;-65
2023/07/23 13:26:23;;;;;;;7.93;4.85;;;;;;;;;;5053995;28;20497;-66
2023/07/23 13:28:48;;;;;;;7.25;4.30;;;;;;;;;;5054118;28;20086;-65
2023/07/23 13:31:17;;;;;;;7.90;4.60;;;;;;;;;;5054197;28;20377;-65
2023/07/23 13:33:43;;;;;;;6.80;4.80;;;;;;;;;;5053308;28;20029;-66
2023/07/23 13:36:08;;;;;;;7.75;5.00;;;;;;;;;;5054126;28;20378;-65
2023/07/23 13:38:34;;;;;;;7.75;4.72;;;;;;;;;;5052921;28;20033;-65
2023/07/23 13:40:59;;;;;;;9.05;5.10;;;;;;;;;;5051019;28;20110;-65
2023/07/23 13:43:24;;;;;;;7.05;4.43;;;;;;;;;;5052660;28;20049;-67
2023/07/23 13:45:50;;;;;;;10.02;4.75;;;;;;;;;;5054161;28;20121;-67
2023/07/23 13:48:15;;;;;;;7.18;4.45;;;;;;;;;;5053697;28;20442;-65
2023/07/23 13:50:41;;;;;;;7.38;4.28;;;;;;;;;;5052779;28;20055;-65
2023/07/23 13:53:06;;;;;;;6.57;3.65;;;;;;;;;;5053453;28;20033;-65
2023/07/23 13:55:31;;;;;;;7.05;4.50;;;;;;;;;;5049725;28;20029;-66
2023/07/23 13:57:57;;;;;;;6.43;3.97;;;;;;;;;;5053340;28;20040;-66
2023/07/23 14:00:22;;;;;;;6.43;4.75;;;;;;;;;;5053066;28;20449;-66
2023/07/23 14:02:48;;;;;;;5.63;3.90;;;;;;;;;;5055724;28;20037;-65
2023/07/23 14:05:13;;;;;;;7.15;4.03;;;;;;;;;;5050760;28;20025;-64
2023/07/23 14:07:39;;;;;;;6.20;3.90;;;;;;;;;;5041647;28;20079;-63
2023/07/23 14:10:05;;;;;;;5.90;3.80;;;;;;;;;;5061379;28;20082;-64
2023/07/23 14:12:32;;;;;;;5.72;4.13;;;;;;;;;;5072498;28;20024;-63
2023/07/23 14:14:58;;;;;;;6.25;4.00;;;;;;;;;;5071677;28;20470;-63
2023/07/23 14:17:23;;;;;;;6.80;4.20;;;;;;;;;;5069568;28;20093;-64
2023/07/23 14:19:49;;;;;;;6.10;4.22;;;;;;;;;;5050842;28;20032;-64
2023/07/23 14:22:14;;;;;;;7.05;4.00;;;;;;;;;;5053553;28;20044;-63
2023/07/23 14:24:40;;;;;;;6.30;4.20;;;;;;;;;;5052047;28;20607;-63
2023/07/23 14:27:05;;;;;;;6.35;4.18;;;;;;;;;;5053188;28;20078;-64
2023/07/23 14:29:31;;;;;;;6.78;4.00;;;;;;;;;;5052801;28;20090;-64
2023/07/23 14:31:56;;;;;;;9.23;3.88;;;;;;;;;;5060765;28;20029;-64
2023/07/23 14:34:22;;;;;;;5.65;4.00;;;;;;;;;;5047219;28;20478;-64
2023/07/23 14:36:47;;;;;;;4.75;3.53;;;;;;;;;;5051221;28;20025;-63
2023/07/23 14:39:12;;;;;;;5.95;4.03;;;;;;;;;;5039755;28;20452;-62
2023/07/23 14:41:38;;;;;;;6.80;3.35;;;;;;;;;;5052019;28;20029;-62